»·PEaware :: N132EF KBFL-KCRQ

N132EF :: KBFL-KCRQ

FLIGHT INFORMATION

Flight Status: Arrived
Operator: Privately registered:
United States
More flights under this callsign
Pilot: Ron R. (25532)
Aircraft: BEECH AIRCRAFT DUKE
(BE60)
More flights by this aircraft type
Origin: KBFL Meadows
United States
Destination: KCRQ McClellan-Palomar
United States
More flights between these airports :: More routes between these airports
Route: LHS V459 SLI V23 OCN
File this flight plan on PilotEdge
Remarks:
Altitude:
(Current/Filed)
17,000ft
Speed:
(Current/Filed)
240kts
Departed: 12-Aug-19 11:34 AM
Arrived: 12-Aug-19 12:31 PM
Distance/Time
Traveled:
164nm/0:56
Distance/Time
To Go:
Arrived

Flight Plot

Page will automatically refresh every two minutes.

Flight plan parsing failed; only flown route is shown


Map Options




Map Legend


Flown Route
Filed Route
Departure Airport
Arrival Airport
Navaid (VOR, NDB)
Fix

Horizontal Profiles

Position Reports

Time Latitude Longitude Heading Altitude Ground
Speed
12-Aug-19 10:39 35.428489 -119.044236 47 510ft 0kts
12-Aug-19 10:40 35.428489 -119.044236 47 510ft 0kts
12-Aug-19 10:41 35.428489 -119.044236 47 510ft 0kts
12-Aug-19 10:42 35.428489 -119.044236 47 510ft 0kts
12-Aug-19 10:43 35.428489 -119.044236 47 510ft 0kts
12-Aug-19 10:44 35.428489 -119.044236 47 510ft 0kts
12-Aug-19 10:45 35.428489 -119.044236 47 510ft 0kts
12-Aug-19 10:46 35.428489 -119.044236 47 510ft 0kts
12-Aug-19 10:47 35.428489 -119.044236 47 510ft 0kts
12-Aug-19 10:48 35.428489 -119.044236 47 510ft 0kts
12-Aug-19 10:49 35.428489 -119.044236 47 510ft 0kts
12-Aug-19 10:50 35.428489 -119.044236 47 510ft 0kts
12-Aug-19 10:51 35.428489 -119.044236 47 510ft 0kts
12-Aug-19 10:52 35.428489 -119.044236 47 510ft 0kts
12-Aug-19 10:53 35.428489 -119.044236 47 510ft 0kts
12-Aug-19 10:54 35.428489 -119.044236 47 510ft 0kts
12-Aug-19 10:55 35.428489 -119.044236 47 510ft 0kts
12-Aug-19 10:56 35.428489 -119.044236 47 510ft 0kts
12-Aug-19 10:57 35.428489 -119.044236 47 510ft 0kts
12-Aug-19 10:58 35.428489 -119.044236 47 510ft 0kts
12-Aug-19 10:59 35.428489 -119.044236 47 510ft 0kts
12-Aug-19 11:00 35.428489 -119.044236 47 510ft 0kts
12-Aug-19 11:01 35.428489 -119.044236 47 510ft 0kts
12-Aug-19 11:02 35.428489 -119.044236 47 510ft 0kts
12-Aug-19 11:03 35.428489 -119.044236 47 510ft 0kts
12-Aug-19 11:04 35.428489 -119.044236 47 510ft 0kts
12-Aug-19 11:05 35.428489 -119.044236 47 510ft 0kts
12-Aug-19 11:06 35.428489 -119.044236 47 510ft 0kts
12-Aug-19 11:07 35.428489 -119.044236 47 510ft 0kts
12-Aug-19 11:08 35.428489 -119.044236 47 510ft 0kts
12-Aug-19 11:09 35.428489 -119.044236 47 510ft 0kts
12-Aug-19 11:10 35.428489 -119.044236 47 510ft 0kts
12-Aug-19 11:11 35.428489 -119.044236 47 510ft 0kts
12-Aug-19 11:12 35.428491 -119.044233 47 510ft 0kts
12-Aug-19 11:13 35.428493 -119.044231 47 510ft 0kts
12-Aug-19 11:14 35.428494 -119.044229 47 510ft 0kts
12-Aug-19 11:15 35.428496 -119.044227 47 510ft 0kts
12-Aug-19 11:16 35.428498 -119.044224 47 510ft 0kts
12-Aug-19 11:17 35.428499 -119.044222 47 510ft 0kts
12-Aug-19 11:18 35.428501 -119.044219 47 510ft 0kts
12-Aug-19 11:19 35.428503 -119.044217 47 510ft 0kts
12-Aug-19 11:20 35.428505 -119.044214 47 510ft 0kts
12-Aug-19 11:21 35.428507 -119.044212 47 510ft 0kts
12-Aug-19 11:22 35.428469 -119.044263 47 510ft 2kts
12-Aug-19 11:23 35.427674 -119.044717 197 510ft 10kts
12-Aug-19 11:24 35.425910 -119.045430 296 510ft 0kts
12-Aug-19 11:25 35.425912 -119.045436 296 510ft 0kts
12-Aug-19 11:26 35.425913 -119.045439 296 510ft 0kts
12-Aug-19 11:27 35.425914 -119.045442 296 510ft 0kts
12-Aug-19 11:28 35.425917 -119.045449 296 510ft 0kts
12-Aug-19 11:29 35.425919 -119.045452 296 510ft 0kts
12-Aug-19 11:30 35.425964 -119.045717 239 510ft 0kts
12-Aug-19 11:31 35.425956 -119.045734 238 510ft 1kts
12-Aug-19 11:32 35.426371 -119.047128 315 510ft 29kts
12-Aug-19 11:33 35.450534 -119.076754 315 1416ft 156kts
12-Aug-19 11:34 35.479564 -119.114202 314 2851ft 147kts
12-Aug-19 11:35 35.483618 -119.153151 195 4221ft 152kts
12-Aug-19 11:36 35.445236 -119.129547 148 5766ft 163kts
12-Aug-19 11:37 35.405533 -119.101422 148 7273ft 164kts
12-Aug-19 11:39 35.366331 -119.072714 148 8771ft 163kts
12-Aug-19 11:40 35.327634 -119.044356 149 10265ft 161kts
12-Aug-19 11:41 35.288606 -119.015850 151 11776ft 168kts
12-Aug-19 11:42 35.247810 -118.986070 150 13279ft 172kts
12-Aug-19 11:43 35.206336 -118.955793 150 14780ft 173kts
12-Aug-19 11:44 35.164986 -118.925642 150 16275ft 172kts
12-Aug-19 11:45 35.121469 -118.894000 150 17082ft 202kts
12-Aug-19 11:46 35.069684 -118.856374 150 17109ft 224kts
12-Aug-19 11:47 35.015567 -118.817078 150 17128ft 227kts
12-Aug-19 11:48 34.960650 -118.777223 150 17141ft 231kts
12-Aug-19 11:49 34.905018 -118.736962 150 17155ft 232kts
12-Aug-19 11:50 34.849498 -118.696849 150 17163ft 232kts
12-Aug-19 11:51 34.794979 -118.657513 150 17170ft 223kts
12-Aug-19 11:52 34.742008 -118.619357 150 17169ft 220kts
12-Aug-19 11:53 34.689048 -118.581278 150 17121ft 222kts
12-Aug-19 11:54 34.634054 -118.547280 156 17087ft 221kts
12-Aug-19 11:55 34.578131 -118.515376 155 17062ft 221kts
12-Aug-19 11:56 34.522666 -118.482967 155 17043ft 221kts
12-Aug-19 11:57 34.467153 -118.450512 155 17010ft 221kts
12-Aug-19 11:58 34.411807 -118.418210 155 17051ft 220kts
12-Aug-19 11:59 34.356533 -118.386003 155 17047ft 221kts
12-Aug-19 12:00 34.301135 -118.353792 155 17055ft 221kts
12-Aug-19 12:01 34.245430 -118.321451 155 17016ft 222kts
12-Aug-19 12:01 34.199251 -118.294657 155 17018ft 221kts
12-Aug-19 12:02 34.143494 -118.262350 155 17008ft 221kts
12-Aug-19 12:04 34.078817 -118.224933 155 17008ft 221kts
12-Aug-19 12:04 34.032464 -118.198158 155 17008ft 221kts
12-Aug-19 12:05 33.976793 -118.166044 155 16871ft 227kts
12-Aug-19 12:07 33.910574 -118.127794 155 15710ft 220kts
12-Aug-19 12:07 33.865052 -118.101672 155 14879ft 216kts
12-Aug-19 12:08 33.810400 -118.070333 156 14043ft 226kts
12-Aug-19 12:09 33.759107 -118.026656 136 13058ft 224kts
12-Aug-19 12:10 33.716214 -117.975180 138 12056ft 214kts
12-Aug-19 12:11 33.674114 -117.925538 137 11055ft 211kts
12-Aug-19 12:12 33.632348 -117.876311 136 10057ft 210kts
12-Aug-19 12:13 33.590745 -117.827309 135 9139ft 209kts
12-Aug-19 12:14 33.549173 -117.778351 135 8328ft 204kts
12-Aug-19 12:15 33.508933 -117.730939 135 7325ft 201kts
12-Aug-19 12:16 33.469062 -117.684224 135 6326ft 200kts
12-Aug-19 12:17 33.429270 -117.637640 135 5328ft 200kts
12-Aug-19 12:18 33.390430 -117.592143 135 5025ft 198kts
12-Aug-19 12:19 33.355937 -117.551826 135 5021ft 153kts
12-Aug-19 12:20 33.324438 -117.515132 136 5025ft 156kts
12-Aug-19 12:21 33.293505 -117.479218 136 4973ft 158kts
12-Aug-19 12:22 33.261516 -117.441261 135 3974ft 161kts
12-Aug-19 12:23 33.230601 -117.404129 135 3077ft 137kts
12-Aug-19 12:24 33.205565 -117.373757 137 2576ft 134kts
12-Aug-19 12:25 33.178941 -117.343003 137 2151ft 134kts
12-Aug-19 12:26 33.153165 -117.312054 135 1803ft 126kts
12-Aug-19 12:27 33.150584 -117.273412 74 1826ft 129kts
12-Aug-19 12:28 33.144452 -117.240605 166 1305ft 110kts
12-Aug-19 12:29 33.130863 -117.264151 257 479ft 99kts
12-Aug-19 12:30 33.126979 -117.287303 226 334ft 13kts
12-Aug-19 12:31 33.126428 -117.287474 172 334ft 0kts
12-Aug-19 12:32 33.126583 -117.284018 79 334ft 16kts
12-Aug-19 12:33 33.127262 -117.279065 141 334ft 10kts
12-Aug-19 12:34 33.126587 -117.278853 169 334ft 0kts
12-Aug-19 12:35 33.126584 -117.278852 169 334ft 0kts
12-Aug-19 12:36 33.126582 -117.278852 169 334ft 0kts
12-Aug-19 12:37 33.126582 -117.278852 169 334ft 0kts
12-Aug-19 12:38 33.126582 -117.278852 169 334ft 0kts
12-Aug-19 12:39 33.126582 -117.278852 169 334ft 0kts
12-Aug-19 12:40 33.126582 -117.278852 169 334ft 0kts

Navigation Log

Ident Type
Flight plan parsing failed, navigation log unavailable